createdAt,value
2023-05-13T00:00:11.099Z,25.92
2023-05-13T00:00:44.537Z,22.08
2023-05-13T00:00:58.257Z,24.02
2023-05-13T00:01:10.788Z,26.70
2023-05-13T00:01:23.295Z,27.40
2023-05-13T00:01:38.861Z,23.90
2023-05-13T00:01:51.456Z,23.80
2023-05-13T00:02:06.810Z,25.90
2023-05-13T00:02:19.972Z,26.80
2023-05-13T00:02:32.532Z,25.48
2023-05-13T00:02:45.193Z,22.55
2023-05-13T00:02:57.917Z,23.08
2023-05-13T00:03:10.534Z,22.08
2023-05-13T00:03:23.695Z,21.73
2023-05-13T00:03:36.507Z,22.02
2023-05-13T00:03:50.344Z,22.25
2023-05-13T00:04:03.021Z,23.00
2023-05-13T00:04:15.564Z,24.52
2023-05-13T00:04:29.392Z,24.00
2023-05-13T00:04:41.932Z,22.77
2023-05-13T00:04:54.439Z,23.48
2023-05-13T00:05:07.933Z,27.17
2023-05-13T00:05:21.445Z,28.70
2023-05-13T00:05:33.980Z,26.25
2023-05-13T00:05:46.972Z,28.13
2023-05-13T00:05:59.964Z,27.00
2023-05-13T00:06:12.753Z,23.75
2023-05-13T00:06:25.422Z,24.67
2023-05-13T00:06:38.371Z,24.60
2023-05-13T00:06:52.211Z,26.02
2023-05-13T00:07:05.194Z,24.80
2023-05-13T00:07:17.651Z,22.55
2023-05-13T00:07:30.356Z,24.50
2023-05-13T00:07:42.876Z,25.50
2023-05-13T00:07:55.759Z,26.40
2023-05-13T00:08:08.396Z,23.27
2023-05-13T00:08:20.953Z,22.55
2023-05-13T00:08:34.630Z,22.60
2023-05-13T00:08:47.222Z,25.42
2023-05-13T00:08:59.759Z,26.65
2023-05-13T00:09:12.217Z,27.00
2023-05-13T00:09:24.675Z,23.13
2023-05-13T00:09:37.456Z,22.92
2023-05-13T00:09:49.958Z,21.40
2023-05-13T00:10:03.692Z,22.70
2023-05-13T00:10:16.590Z,24.50
2023-05-13T00:10:29.230Z,23.63
2023-05-13T00:10:41.862Z,24.58
2023-05-13T00:10:54.601Z,25.08
2023-05-13T00:11:07.887Z,22.40
2023-05-13T00:11:20.423Z,22.00
2023-05-13T00:11:33.053Z,21.88
2023-05-13T00:11:46.629Z,23.33
2023-05-13T00:11:59.145Z,26.00
2023-05-13T00:12:11.645Z,23.33
2023-05-13T00:12:24.144Z,24.92
2023-05-13T00:12:37.149Z,24.80
2023-05-13T00:12:49.629Z,23.77
2023-05-13T00:13:02.744Z,23.35
2023-05-13T00:13:16.229Z,23.40
2023-05-13T00:13:28.743Z,22.35
2023-05-13T00:13:41.480Z,20.63
2023-05-13T00:13:54.002Z,23.75
2023-05-13T00:14:09.641Z,26.00
2023-05-13T00:14:22.258Z,23.02
2023-05-13T00:14:36.017Z,21.83
2023-05-13T00:14:48.506Z,24.08
2023-05-13T00:15:01.087Z,21.75
2023-05-13T00:15:13.732Z,23.52
2023-05-13T00:15:26.386Z,26.25
2023-05-13T00:15:38.837Z,26.42
2023-05-13T00:15:51.486Z,23.92
2023-05-13T00:16:05.214Z,19.60
2023-05-13T00:16:17.833Z,22.50
2023-05-13T00:16:30.672Z,23.13
2023-05-13T00:16:43.384Z,21.13
2023-05-13T00:16:56.474Z,20.55
2023-05-13T00:17:09.005Z,22.40
2023-05-13T00:17:21.583Z,23.80
2023-05-13T00:17:35.206Z,26.20
2023-05-13T00:17:47.690Z,25.50
2023-05-13T00:18:00.319Z,23.05
2023-05-13T00:18:13.132Z,21.60
2023-05-13T00:18:26.182Z,21.33
2023-05-13T00:18:38.798Z,22.52
2023-05-13T00:18:51.574Z,24.38
2023-05-13T00:19:05.130Z,22.75
2023-05-13T00:19:17.669Z,23.35
2023-05-13T00:19:31.824Z,21.02
2023-05-13T00:19:44.316Z,21.80
2023-05-13T00:19:56.753Z,22.55
2023-05-13T00:20:09.649Z,21.75
2023-05-13T00:20:23.516Z,20.80
2023-05-13T00:20:36.186Z,22.58
2023-05-13T00:20:48.679Z,23.48
2023-05-13T00:21:01.233Z,20.90
2023-05-13T00:21:13.735Z,21.00
2023-05-13T00:21:26.480Z,22.05
2023-05-13T00:21:38.945Z,25.02
2023-05-13T00:21:52.653Z,24.88
2023-05-13T00:22:05.229Z,24.02
2023-05-13T00:22:18.002Z,24.17
2023-05-13T00:22:30.662Z,23.98
2023-05-13T00:22:43.160Z,23.77
2023-05-13T00:22:55.764Z,24.70
2023-05-13T00:23:08.638Z,22.35
2023-05-13T00:23:22.113Z,22.45
2023-05-13T00:23:35.180Z,20.77
2023-05-13T00:23:47.699Z,21.48
2023-05-13T00:24:00.238Z,23.85
2023-05-13T00:24:12.749Z,23.85
2023-05-13T00:24:25.545Z,21.45
2023-05-13T00:24:38.025Z,21.45
2023-05-13T00:24:51.491Z,22.38
2023-05-13T00:25:04.364Z,23.63
2023-05-13T00:25:16.886Z,22.52
2023-05-13T00:25:29.608Z,21.65
2023-05-13T00:25:44.128Z,23.80
2023-05-13T00:25:56.641Z,26.50
2023-05-13T00:26:09.165Z,25.42
2023-05-13T00:26:22.749Z,23.75
2023-05-13T00:26:35.300Z,28.25
2023-05-13T00:26:47.884Z,27.70
2023-05-13T00:27:00.508Z,28.83
2023-05-13T00:27:13.050Z,26.45
2023-05-13T00:27:25.872Z,24.40
2023-05-13T00:27:38.343Z,24.45
2023-05-13T00:27:51.287Z,21.48
2023-05-13T00:28:04.910Z,21.55
2023-05-13T00:28:17.404Z,21.85
2023-05-13T00:28:29.940Z,21.60
2023-05-13T00:28:42.452Z,25.15
2023-05-13T00:28:55.050Z,27.48
2023-05-13T00:29:07.655Z,24.63
2023-05-13T00:29:20.467Z,26.02
2023-05-13T00:29:32.999Z,24.88
2023-05-13T00:29:45.512Z,25.58
2023-05-13T00:29:59.786Z,25.88
2023-05-13T00:30:12.737Z,26.13
2023-05-13T00:30:25.310Z,28.23
2023-05-13T00:30:37.854Z,31.60
2023-05-13T00:30:50.626Z,31.63
2023-05-13T00:31:04.037Z,27.80
2023-05-13T00:31:16.885Z,23.95
2023-05-13T00:31:29.503Z,24.92
2023-05-13T00:31:42.130Z,25.30
2023-05-13T00:31:55.737Z,22.77
2023-05-13T00:32:08.239Z,21.08
2023-05-13T00:32:20.803Z,22.05
2023-05-13T00:32:33.413Z,23.70
2023-05-13T00:32:45.948Z,25.85
2023-05-13T00:32:58.962Z,26.80
2023-05-13T00:33:12.833Z,28.48
2023-05-13T00:33:25.473Z,26.33
2023-05-13T00:33:37.968Z,23.88
2023-05-13T00:33:50.482Z,23.20
2023-05-13T00:34:04.169Z,26.25
2023-05-13T00:34:18.523Z,28.15
2023-05-13T00:34:32.348Z,24.45
2023-05-13T00:34:44.781Z,23.15
2023-05-13T00:34:58.692Z,23.98
2023-05-13T00:35:11.331Z,25.50
2023-05-13T00:35:23.798Z,27.33
2023-05-13T00:35:36.255Z,28.38
2023-05-13T00:35:48.713Z,27.45
2023-05-13T00:36:01.156Z,26.77
2023-05-13T00:36:14.695Z,24.08
2023-05-13T00:36:27.520Z,21.77
2023-05-13T00:36:40.284Z,22.48
2023-05-13T00:36:52.993Z,25.45
2023-05-13T00:37:06.283Z,27.88
2023-05-13T00:37:19.064Z,25.00
2023-05-13T00:37:31.561Z,22.60
2023-05-13T00:37:44.286Z,21.80
2023-05-13T00:37:57.777Z,24.27
2023-05-13T00:38:10.317Z,25.17
2023-05-13T00:38:22.815Z,26.67
2023-05-13T00:38:35.367Z,27.30
2023-05-13T00:38:47.943Z,25.08
2023-05-13T00:39:00.481Z,24.70
2023-05-13T00:39:13.311Z,23.35
2023-05-13T00:39:25.805Z,24.27
2023-05-13T00:39:39.282Z,23.30
2023-05-13T00:39:51.945Z,23.05
2023-05-13T00:40:05.470Z,24.08
2023-05-13T00:40:21.196Z,25.52
2023-05-13T00:40:37.063Z,23.90
2023-05-13T00:40:50.320Z,23.05
2023-05-13T00:41:04.180Z,24.38
2023-05-13T00:41:18.466Z,24.92
2023-05-13T00:41:31.265Z,23.83
2023-05-13T00:41:43.759Z,23.27
2023-05-13T00:41:56.319Z,25.05
2023-05-13T00:42:11.242Z,24.70
2023-05-13T00:42:23.751Z,26.15
2023-05-13T00:42:37.238Z,24.27
2023-05-13T00:42:50.130Z,23.08
2023-05-13T00:43:02.632Z,24.00
2023-05-13T00:43:15.162Z,23.38
2023-05-13T00:43:27.650Z,21.88
2023-05-13T00:43:40.312Z,23.80
2023-05-13T00:43:56.053Z,25.02
2023-05-13T00:44:08.797Z,25.80
2023-05-13T00:44:21.333Z,27.17
2023-05-13T00:44:34.703Z,26.00
2023-05-13T00:44:47.220Z,24.10
2023-05-13T00:44:59.753Z,28.80
2023-05-13T00:45:12.328Z,30.63
2023-05-13T00:45:25.770Z,27.55
2023-05-13T00:45:38.688Z,25.80
2023-05-13T00:45:51.276Z,24.70
2023-05-13T00:46:04.688Z,24.67
2023-05-13T00:46:17.562Z,26.20
2023-05-13T00:46:32.130Z,23.90
2023-05-13T00:46:44.962Z,22.90
2023-05-13T00:46:58.527Z,24.98
2023-05-13T00:47:11.791Z,24.52
2023-05-13T00:47:24.359Z,23.25
2023-05-13T00:47:37.053Z,20.45
2023-05-13T00:47:50.263Z,18.77
2023-05-13T00:48:05.732Z,19.67
2023-05-13T00:48:18.261Z,22.25
2023-05-13T00:48:30.985Z,22.92
2023-05-13T00:48:44.953Z,23.10
2023-05-13T00:48:57.550Z,22.20
2023-05-13T00:49:10.302Z,22.13
2023-05-13T00:49:22.931Z,26.48
2023-05-13T00:49:37.010Z,27.08
2023-05-13T00:49:49.817Z,24.88
2023-05-13T00:50:02.783Z,23.70
2023-05-13T00:50:15.529Z,24.45
2023-05-13T00:50:29.036Z,25.00
2023-05-13T00:50:44.512Z,26.40
2023-05-13T00:50:57.036Z,23.65
2023-05-13T00:51:10.277Z,22.00
2023-05-13T00:51:23.125Z,25.35
2023-05-13T00:51:37.014Z,24.35
2023-05-13T00:51:52.444Z,23.90
2023-05-13T00:52:05.925Z,25.23
2023-05-13T00:52:18.419Z,24.77
2023-05-13T00:52:31.015Z,22.98
2023-05-13T00:52:43.848Z,23.40
2023-05-13T00:52:58.244Z,23.85
2023-05-13T00:53:12.082Z,23.77
2023-05-13T00:53:24.581Z,23.27
2023-05-13T00:53:40.199Z,23.92
2023-05-13T00:53:52.956Z,23.17
2023-05-13T00:54:05.663Z,21.38
2023-05-13T00:54:18.172Z,24.23
2023-05-13T00:54:30.701Z,24.35
2023-05-13T00:54:43.212Z,24.02
2023-05-13T00:54:56.955Z,25.73
2023-05-13T00:55:10.459Z,25.55
2023-05-13T00:55:22.932Z,23.33
2023-05-13T00:55:35.408Z,22.80
2023-05-13T00:55:47.946Z,21.92
2023-05-13T00:56:00.485Z,22.05
2023-05-13T00:56:14.990Z,22.42
2023-05-13T00:56:27.674Z,24.83
2023-05-13T00:56:40.482Z,25.60
2023-05-13T00:56:56.599Z,25.17
2023-05-13T00:57:09.082Z,27.38
2023-05-13T00:57:21.707Z,26.35
2023-05-13T00:57:35.146Z,26.95
2023-05-13T00:57:48.711Z,25.05
2023-05-13T00:58:01.244Z,24.25
2023-05-13T00:58:14.059Z,24.65
2023-05-13T00:58:26.633Z,27.50
2023-05-13T00:58:39.463Z,26.48
2023-05-13T00:58:52.052Z,23.95
2023-05-13T00:59:04.679Z,22.13
2023-05-13T00:59:18.110Z,22.45
2023-05-13T00:59:31.379Z,21.67
2023-05-13T00:59:43.837Z,20.73
2023-05-13T00:59:56.514Z,21.55
2023-05-13T01:00:10.835Z,23.55
2023-05-13T01:00:23.412Z,25.63
2023-05-13T01:00:39.660Z,24.17
2023-05-13T01:01:00.985Z,25.13
2023-05-13T01:01:20.619Z,25.92
2023-05-13T01:01:55.569Z,24.73
2023-05-13T01:02:17.101Z,23.10
2023-05-13T01:02:36.073Z,23.70
2023-05-13T01:02:53.549Z,24.90
2023-05-13T01:03:10.173Z,23.15
2023-05-13T01:03:29.423Z,26.38
2023-05-13T01:04:01.469Z,24.08
2023-05-13T01:04:22.087Z,25.00
2023-05-13T01:04:44.613Z,25.90
2023-05-13T01:05:05.477Z,26.75
2023-05-13T01:05:26.111Z,27.70
2023-05-13T01:05:46.737Z,24.35
2023-05-13T01:06:08.802Z,22.25
2023-05-13T01:06:36.723Z,21.90
2023-05-13T01:06:57.038Z,23.33
2023-05-13T01:07:20.193Z,23.10
2023-05-13T01:07:39.997Z,24.50
2023-05-13T01:07:59.199Z,22.67
2023-05-13T01:08:20.263Z,22.63
2023-05-13T01:08:41.707Z,22.08
2023-05-13T01:08:59.595Z,23.42
2023-05-13T01:09:21.714Z,22.50
2023-05-13T01:09:40.904Z,22.23
2023-05-13T01:10:02.483Z,18.83
2023-05-13T01:10:21.743Z,21.13
2023-05-13T01:10:42.609Z,20.92
2023-05-13T01:10:59.484Z,22.85
2023-05-13T01:11:16.088Z,24.48
2023-05-13T01:11:32.879Z,23.25
2023-05-13T01:11:49.615Z,22.17
2023-05-13T01:12:09.012Z,25.40
2023-05-13T01:12:32.104Z,27.77
2023-05-13T01:12:46.413Z,26.08
2023-05-13T01:13:04.110Z,24.30
2023-05-13T01:13:21.195Z,22.98
2023-05-13T01:13:38.222Z,22.92
2023-05-13T01:14:01.444Z,22.05
2023-05-13T01:14:19.690Z,24.23
2023-05-13T01:14:35.521Z,22.38
2023-05-13T01:14:54.725Z,21.88
2023-05-13T01:15:10.521Z,23.83
2023-05-13T01:15:28.019Z,24.20
2023-05-13T01:15:52.910Z,21.00
2023-05-13T01:16:09.605Z,21.38
2023-05-13T01:16:35.988Z,18.60
2023-05-13T01:16:54.091Z,19.73
2023-05-13T01:17:14.911Z,21.95
2023-05-13T01:17:32.689Z,20.85
2023-05-13T01:17:53.890Z,22.05
2023-05-13T01:18:10.000Z,21.90
2023-05-13T01:18:28.322Z,20.45
2023-05-13T01:18:46.434Z,21.13
2023-05-13T01:19:05.476Z,22.98
2023-05-13T01:19:32.004Z,26.70
2023-05-13T01:19:49.605Z,23.52
2023-05-13T01:20:04.209Z,25.48
2023-05-13T01:20:21.232Z,25.23
2023-05-13T01:20:35.769Z,22.80
2023-05-13T01:20:48.428Z,20.52
2023-05-13T01:21:02.196Z,21.48
2023-05-13T01:21:14.791Z,21.60
2023-05-13T01:21:29.149Z,24.55
2023-05-13T01:21:41.731Z,23.75
2023-05-13T01:21:54.617Z,24.48
2023-05-13T01:22:07.206Z,23.10
2023-05-13T01:22:20.746Z,25.08
2023-05-13T01:22:33.559Z,22.55
2023-05-13T01:22:46.029Z,20.45
2023-05-13T01:22:58.523Z,23.42
2023-05-13T01:23:11.438Z,23.33
2023-05-13T01:23:24.980Z,21.98
2023-05-13T01:23:37.495Z,23.13
2023-05-13T01:23:49.995Z,23.65
2023-05-13T01:24:03.475Z,24.55
2023-05-13T01:24:16.198Z,23.67
2023-05-13T01:24:28.815Z,24.10
2023-05-13T01:24:41.487Z,24.77
2023-05-13T01:24:54.015Z,24.27
2023-05-13T01:25:07.273Z,21.15
2023-05-13T01:25:19.793Z,19.52
2023-05-13T01:25:32.807Z,20.42
2023-05-13T01:25:46.758Z,23.25
2023-05-13T01:25:59.277Z,25.48
2023-05-13T01:26:12.082Z,25.17
2023-05-13T01:26:26.714Z,22.52
2023-05-13T01:26:39.350Z,23.33
2023-05-13T01:26:52.196Z,23.27
2023-05-13T01:27:05.343Z,24.17
2023-05-13T01:27:17.996Z,24.00
2023-05-13T01:27:31.598Z,22.42
2023-05-13T01:27:44.265Z,21.05
2023-05-13T01:27:56.865Z,21.48
2023-05-13T01:28:09.872Z,20.30
2023-05-13T01:28:23.015Z,18.75
2023-05-13T01:28:35.552Z,19.05
2023-05-13T01:28:48.417Z,20.67
2023-05-13T01:29:01.082Z,20.50
2023-05-13T01:29:13.996Z,19.40
2023-05-13T01:29:28.010Z,20.33
2023-05-13T01:29:41.001Z,21.73
2023-05-13T01:29:55.430Z,22.08
2023-05-13T01:30:10.096Z,21.92
2023-05-13T01:30:23.819Z,21.73
2023-05-13T01:30:36.834Z,20.55
2023-05-13T01:30:50.767Z,21.77
2023-05-13T01:31:03.449Z,21.70
2023-05-13T01:31:16.102Z,22.52
2023-05-13T01:31:30.139Z,22.83
2023-05-13T01:31:43.128Z,23.38
2023-05-13T01:31:57.255Z,21.88
2023-05-13T01:32:11.309Z,19.83
2023-05-13T01:32:26.407Z,21.40
2023-05-13T01:32:39.334Z,21.70
2023-05-13T01:32:52.719Z,22.55
2023-05-13T01:33:05.948Z,22.52
2023-05-13T01:33:19.176Z,22.75
2023-05-13T01:33:32.526Z,21.05
2023-05-13T01:33:45.930Z,19.73
2023-05-13T01:33:58.523Z,20.05
2023-05-13T01:34:13.967Z,20.98
2023-05-13T01:34:27.821Z,18.85
2023-05-13T01:34:41.651Z,18.00
2023-05-13T01:34:56.255Z,18.42
2023-05-13T01:35:11.002Z,18.67
2023-05-13T01:35:24.803Z,19.45
2023-05-13T01:35:37.766Z,20.73
2023-05-13T01:35:51.966Z,20.85
2023-05-13T01:36:06.638Z,19.88
2023-05-13T01:36:19.421Z,21.35
2023-05-13T01:36:33.351Z,23.63
2023-05-13T01:36:45.989Z,24.58
2023-05-13T01:36:59.796Z,21.65
2023-05-13T01:37:12.490Z,20.30
2023-05-13T01:37:26.022Z,20.67
2023-05-13T01:37:40.417Z,18.98
2023-05-13T01:37:53.887Z,18.45
2023-05-13T01:38:07.339Z,18.63
2023-05-13T01:38:21.654Z,17.27
2023-05-13T01:38:35.665Z,19.35
2023-05-13T01:38:50.268Z,20.92
2023-05-13T01:39:03.719Z,19.65
2023-05-13T01:39:19.436Z,20.58
2023-05-13T01:39:32.421Z,20.80
2023-05-13T01:39:45.109Z,21.63
2023-05-13T01:39:57.836Z,24.13
2023-05-13T01:40:24.154Z,22.60
2023-05-13T01:40:44.838Z,21.42
2023-05-13T01:40:59.276Z,20.08
2023-05-13T01:41:11.840Z,19.13
2023-05-13T01:41:24.335Z,18.63
2023-05-13T01:41:37.065Z,20.15
2023-05-13T01:41:49.756Z,22.52
2023-05-13T01:42:02.344Z,22.33
2023-05-13T01:42:15.897Z,22.25
2023-05-13T01:42:29.965Z,23.17
2023-05-13T01:42:43.131Z,19.67
2023-05-13T01:42:55.634Z,18.55
2023-05-13T01:43:08.308Z,19.73
2023-05-13T01:43:20.859Z,19.33
2023-05-13T01:43:33.482Z,19.85
2023-05-13T01:43:46.977Z,19.30
2023-05-13T01:43:59.470Z,19.42
2023-05-13T01:44:11.993Z,18.42
2023-05-13T01:44:24.583Z,18.38
2023-05-13T01:44:37.220Z,18.02
2023-05-13T01:44:51.766Z,20.70
2023-05-13T01:45:04.952Z,21.13
2023-05-13T01:45:17.807Z,19.27
2023-05-13T01:45:30.782Z,18.92
2023-05-13T01:45:44.486Z,20.25
2023-05-13T01:46:00.489Z,20.95
2023-05-13T01:46:13.351Z,19.73
2023-05-13T01:46:26.811Z,19.67
2023-05-13T01:46:39.481Z,17.35
2023-05-13T01:46:53.476Z,18.05
2023-05-13T01:47:07.491Z,18.55
2023-05-13T01:47:20.036Z,18.58
2023-05-13T01:47:32.654Z,18.27
2023-05-13T01:47:45.310Z,20.45
2023-05-13T01:47:58.055Z,19.65
2023-05-13T01:48:10.723Z,19.05
2023-05-13T01:48:24.119Z,17.90
2023-05-13T01:48:37.903Z,18.15
2023-05-13T01:48:50.486Z,18.55
2023-05-13T01:49:02.978Z,20.88
2023-05-13T01:49:15.567Z,22.48
2023-05-13T01:49:28.059Z,20.83
2023-05-13T01:49:40.558Z,19.85
2023-05-13T01:49:53.374Z,20.55
2023-05-13T01:50:08.515Z,20.42
2023-05-13T01:50:21.505Z,19.42
2023-05-13T01:50:34.221Z,22.27
2023-05-13T01:50:47.418Z,22.88
2023-05-13T01:50:59.955Z,19.17
2023-05-13T01:51:12.509Z,18.52
2023-05-13T01:51:25.113Z,20.48
2023-05-13T01:51:40.237Z,20.08
2023-05-13T01:51:53.776Z,16.65
2023-05-13T01:52:06.735Z,16.90
2023-05-13T01:52:19.660Z,19.40
2023-05-13T01:52:32.540Z,21.75
2023-05-13T01:52:45.088Z,22.00
2023-05-13T01:52:57.597Z,22.95
2023-05-13T01:53:10.125Z,21.33
2023-05-13T01:53:23.748Z,19.88
2023-05-13T01:53:36.562Z,19.23
2023-05-13T01:53:49.097Z,18.52
2023-05-13T01:54:01.593Z,18.02
2023-05-13T01:54:14.065Z,18.30
2023-05-13T01:54:26.729Z,20.85
2023-05-13T01:54:39.300Z,20.67
2023-05-13T01:54:51.821Z,19.00
2023-05-13T01:55:05.897Z,17.75
2023-05-13T01:55:18.818Z,19.17
2023-05-13T01:55:31.522Z,20.60
2023-05-13T01:55:44.007Z,20.27
2023-05-13T01:55:56.668Z,20.85
2023-05-13T01:56:09.958Z,21.90
2023-05-13T01:56:23.796Z,21.38
2023-05-13T01:56:36.413Z,19.33
2023-05-13T01:56:48.961Z,18.67
2023-05-13T01:57:01.515Z,19.95
2023-05-13T01:57:14.132Z,19.25
2023-05-13T01:57:26.660Z,19.15
2023-05-13T01:57:40.137Z,17.33
2023-05-13T01:57:52.645Z,19.98
2023-05-13T01:58:05.152Z,21.15
2023-05-13T01:58:17.722Z,18.65
2023-05-13T01:58:30.257Z,18.30
2023-05-13T01:58:42.764Z,19.65
2023-05-13T01:58:55.300Z,21.60
2023-05-13T01:59:10.078Z,20.40
2023-05-13T01:59:23.336Z,17.98
2023-05-13T01:59:36.841Z,17.13
2023-05-13T01:59:49.634Z,18.75
2023-05-13T02:00:02.520Z,19.05
2023-05-13T02:00:16.253Z,18.88
2023-05-13T02:00:28.816Z,21.02
2023-05-13T02:00:41.394Z,21.45
2023-05-13T02:00:53.887Z,19.60
2023-05-13T02:01:08.371Z,19.02
2023-05-13T02:01:22.560Z,20.92
2023-05-13T02:01:35.292Z,21.85
2023-05-13T02:01:47.866Z,20.70
2023-05-13T02:02:00.482Z,19.80
2023-05-13T02:02:13.394Z,20.77
2023-05-13T02:02:26.068Z,21.42
2023-05-13T02:02:38.739Z,23.10
2023-05-13T02:02:52.558Z,20.33
2023-05-13T02:03:05.247Z,18.75
2023-05-13T02:03:17.924Z,19.98
2023-05-13T02:03:30.590Z,21.13
2023-05-13T02:03:43.478Z,23.05
2023-05-13T02:03:57.528Z,21.63
2023-05-13T02:04:11.489Z,20.35
2023-05-13T02:04:24.071Z,20.70
2023-05-13T02:04:36.590Z,20.65
2023-05-13T02:04:49.095Z,18.88
2023-05-13T02:05:01.624Z,20.85
2023-05-13T02:05:14.168Z,21.05
2023-05-13T02:05:26.757Z,18.58
2023-05-13T02:05:39.406Z,16.50
2023-05-13T02:05:52.953Z,18.05
2023-05-13T02:06:06.039Z,18.65
2023-05-13T02:06:18.541Z,17.33
2023-05-13T02:06:32.168Z,16.90
2023-05-13T02:06:46.076Z,17.67
2023-05-13T02:06:58.652Z,17.67
2023-05-13T02:07:11.189Z,16.92
2023-05-13T02:07:24.952Z,19.00
2023-05-13T02:07:37.497Z,22.25
2023-05-13T02:07:50.219Z,23.13
2023-05-13T02:08:02.876Z,21.58
2023-05-13T02:08:15.397Z,19.75
2023-05-13T02:08:28.018Z,20.67
2023-05-13T02:08:40.579Z,20.17
2023-05-13T02:08:53.125Z,18.73
2023-05-13T02:09:06.836Z,17.23
2023-05-13T02:09:19.361Z,17.50
2023-05-13T02:09:31.923Z,20.08
2023-05-13T02:09:44.500Z,21.08
2023-05-13T02:09:59.781Z,20.40
2023-05-13T02:10:12.776Z,19.90
2023-05-13T02:10:26.297Z,17.95
2023-05-13T02:10:38.821Z,16.65
2023-05-13T02:10:55.592Z,17.33
2023-05-13T02:11:08.078Z,19.27
2023-05-13T02:11:20.908Z,17.95
2023-05-13T02:11:33.471Z,18.88
2023-05-13T02:11:45.984Z,18.65
2023-05-13T02:11:58.515Z,17.95
2023-05-13T02:12:11.997Z,16.70
2023-05-13T02:12:24.461Z,17.83
2023-05-13T02:12:37.018Z,18.52
2023-05-13T02:12:49.551Z,18.17
2023-05-13T02:13:02.240Z,18.35
2023-05-13T02:13:14.787Z,17.50
2023-05-13T02:13:27.485Z,18.00
2023-05-13T02:13:40.035Z,18.77
2023-05-13T02:13:53.553Z,18.98
2023-05-13T02:14:06.116Z,16.83
2023-05-13T02:14:18.700Z,16.52
2023-05-13T02:14:31.250Z,19.33
2023-05-13T02:14:43.778Z,20.00
2023-05-13T02:14:56.578Z,18.17
2023-05-13T02:15:11.187Z,16.20
2023-05-13T02:15:23.754Z,17.58
2023-05-13T02:15:36.626Z,17.85
2023-05-13T02:15:49.168Z,17.17
2023-05-13T02:16:01.812Z,16.83
2023-05-13T02:16:16.544Z,18.92
2023-05-13T02:16:29.167Z,21.30
2023-05-13T02:16:41.850Z,20.52
2023-05-13T02:16:54.416Z,21.35
2023-05-13T02:17:07.969Z,20.30
2023-05-13T02:17:20.480Z,17.73
2023-05-13T02:17:33.106Z,19.25
2023-05-13T02:17:45.659Z,18.83
2023-05-13T02:17:58.293Z,20.75
2023-05-13T02:18:10.946Z,20.38
2023-05-13T02:18:23.499Z,18.80
2023-05-13T02:18:37.059Z,17.13
2023-05-13T02:18:49.893Z,16.63
2023-05-13T02:19:02.535Z,17.88
2023-05-13T02:19:15.084Z,17.63
2023-05-13T02:19:27.653Z,20.08
2023-05-13T02:19:40.262Z,20.08
2023-05-13T02:19:52.733Z,20.17
2023-05-13T02:20:06.552Z,19.25
2023-05-13T02:20:20.446Z,18.83
2023-05-13T02:20:33.170Z,17.60
2023-05-13T02:20:46.116Z,18.02
2023-05-13T02:20:58.758Z,17.58
2023-05-13T02:21:11.349Z,19.08
2023-05-13T02:21:23.909Z,19.27
2023-05-13T02:21:36.580Z,19.15
2023-05-13T02:21:51.444Z,18.95
2023-05-13T02:22:04.149Z,17.98
2023-05-13T02:22:16.656Z,17.15
2023-05-13T02:22:29.583Z,17.33
2023-05-13T02:22:42.118Z,18.33
2023-05-13T02:22:54.608Z,17.50
2023-05-13T02:23:07.155Z,17.35
2023-05-13T02:23:19.773Z,16.60
2023-05-13T02:23:33.332Z,18.50
2023-05-13T02:23:45.826Z,16.92
2023-05-13T02:23:58.349Z,15.90
2023-05-13T02:24:11.110Z,16.23
2023-05-13T02:24:23.796Z,17.27
2023-05-13T02:24:39.894Z,18.30
2023-05-13T02:24:52.443Z,17.73
2023-05-13T02:25:05.640Z,17.38
2023-05-13T02:25:19.311Z,18.90
2023-05-13T02:25:31.882Z,19.73
2023-05-13T02:25:44.436Z,17.48
2023-05-13T02:25:57.000Z,16.77
2023-05-13T02:26:09.852Z,17.55
2023-05-13T02:26:22.459Z,19.85
2023-05-13T02:26:35.962Z,20.70
2023-05-13T02:26:48.448Z,19.48
2023-05-13T02:27:01.003Z,17.45
2023-05-13T02:27:16.257Z,17.65
2023-05-13T02:27:28.764Z,20.65
2023-05-13T02:27:41.361Z,20.90
2023-05-13T02:27:54.896Z,18.94
2023-05-13T02:28:07.828Z,19.95
2023-05-13T02:28:20.331Z,18.98
2023-05-13T02:28:32.913Z,18.05
2023-05-13T02:28:45.603Z,17.58
2023-05-13T02:28:58.156Z,18.42
2023-05-13T02:29:10.994Z,18.38
2023-05-13T02:29:24.469Z,16.83
2023-05-13T02:29:36.943Z,16.63
2023-05-13T02:29:49.766Z,16.70
2023-05-13T02:30:02.406Z,18.52
2023-05-13T02:30:15.067Z,19.02
2023-05-13T02:30:27.815Z,17.33
2023-05-13T02:30:40.336Z,17.85
2023-05-13T02:30:53.848Z,19.23
2023-05-13T02:31:08.222Z,19.70
2023-05-13T02:31:20.842Z,19.90
2023-05-13T02:31:33.508Z,19.02
2023-05-13T02:31:46.068Z,16.75
2023-05-13T02:31:58.632Z,17.58
2023-05-13T02:32:11.276Z,18.23
2023-05-13T02:32:24.865Z,17.55
2023-05-13T02:32:37.474Z,17.60
2023-05-13T02:32:50.030Z,19.17
2023-05-13T02:33:02.830Z,19.75
2023-05-13T02:33:15.364Z,20.75
2023-05-13T02:33:27.863Z,19.30
2023-05-13T02:33:40.811Z,18.63
2023-05-13T02:33:54.474Z,17.95
2023-05-13T02:34:07.151Z,18.17
2023-05-13T02:34:19.694Z,16.95
2023-05-13T02:34:32.309Z,16.40
2023-05-13T02:34:44.812Z,18.15
2023-05-13T02:34:57.386Z,18.42
2023-05-13T02:35:10.295Z,18.65
2023-05-13T02:35:24.526Z,17.75
2023-05-13T02:35:36.996Z,15.75
2023-05-13T02:35:49.631Z,17.38
2023-05-13T02:36:02.715Z,18.60
2023-05-13T02:36:15.300Z,18.50
2023-05-13T02:36:27.857Z,16.30
2023-05-13T02:36:41.400Z,16.05
2023-05-13T02:36:55.269Z,16.23
2023-05-13T02:37:07.772Z,16.65
2023-05-13T02:37:21.184Z,17.30
2023-05-13T02:37:33.724Z,18.85
2023-05-13T02:37:46.605Z,18.23
2023-05-13T02:37:59.101Z,15.75
2023-05-13T02:38:11.787Z,16.40
2023-05-13T02:38:25.276Z,16.80
2023-05-13T02:38:37.905Z,17.98
2023-05-13T02:38:50.509Z,18.75
2023-05-13T02:39:03.591Z,18.63
2023-05-13T02:39:16.164Z,18.60
2023-05-13T02:39:28.626Z,19.75
2023-05-13T02:39:41.160Z,21.88
2023-05-13T02:39:54.829Z,19.98
2023-05-13T02:40:08.718Z,17.33
2023-05-13T02:40:21.451Z,17.67
2023-05-13T02:40:34.240Z,17.83
2023-05-13T02:40:46.755Z,19.23
2023-05-13T02:41:00.158Z,20.00
2023-05-13T02:41:13.656Z,17.02
2023-05-13T02:41:26.104Z,16.98
2023-05-13T02:41:38.572Z,20.02
2023-05-13T02:41:51.167Z,18.83
2023-05-13T02:42:04.576Z,17.48
2023-05-13T02:42:17.038Z,17.58
2023-05-13T02:42:29.741Z,21.27
2023-05-13T02:42:43.439Z,19.23
2023-05-13T02:42:55.927Z,17.98
2023-05-13T02:43:08.382Z,19.02
2023-05-13T02:43:21.705Z,18.75
2023-05-13T02:43:34.194Z,16.63
2023-05-13T02:43:46.697Z,17.25
2023-05-13T02:43:59.195Z,18.65
2023-05-13T02:44:11.704Z,19.58
2023-05-13T02:44:25.192Z,17.35
2023-05-13T02:44:37.709Z,17.65
2023-05-13T02:44:50.827Z,17.40
2023-05-13T02:45:03.578Z,18.15
2023-05-13T02:45:16.287Z,19.80
2023-05-13T02:45:28.801Z,19.63
2023-05-13T02:45:41.527Z,17.08
2023-05-13T02:45:54.292Z,16.67
2023-05-13T02:46:08.147Z,15.98
2023-05-13T02:46:21.843Z,16.80
2023-05-13T02:46:34.469Z,18.00
2023-05-13T02:46:47.058Z,18.75
2023-05-13T02:46:59.523Z,19.50
2023-05-13T02:47:12.074Z,19.30
2023-05-13T02:47:25.549Z,17.02
2023-05-13T02:47:39.363Z,17.38
2023-05-13T02:47:52.045Z,19.83
2023-05-13T02:48:04.701Z,19.88
2023-05-13T02:48:17.374Z,19.08
2023-05-13T02:48:30.218Z,18.13
2023-05-13T02:48:42.739Z,19.42
2023-05-13T02:48:56.242Z,18.88
2023-05-13T02:49:08.706Z,16.50
2023-05-13T02:49:21.255Z,18.48
2023-05-13T02:49:33.715Z,18.73
2023-05-13T02:49:46.319Z,19.20
2023-05-13T02:49:58.824Z,18.75
2023-05-13T02:50:12.474Z,17.52
2023-05-13T02:50:24.951Z,18.08
2023-05-13T02:50:39.379Z,19.67
2023-05-13T02:50:51.845Z,21.63
2023-05-13T02:51:04.383Z,20.02
2023-05-13T02:51:16.858Z,19.25
2023-05-13T02:51:29.404Z,20.23
2023-05-13T02:51:41.917Z,19.52
2023-05-13T02:51:55.781Z,19.20
2023-05-13T02:52:09.516Z,18.27
2023-05-13T02:52:22.213Z,18.58
2023-05-13T02:52:35.961Z,17.38
2023-05-13T02:52:48.741Z,17.05
2023-05-13T02:53:01.250Z,18.98
2023-05-13T02:53:13.729Z,18.80
2023-05-13T02:53:26.242Z,18.23
2023-05-13T02:53:39.366Z,15.95
2023-05-13T02:53:52.827Z,15.88
2023-05-13T02:54:05.442Z,18.20
2023-05-13T02:54:17.938Z,18.08
2023-05-13T02:54:30.445Z,17.85
2023-05-13T02:54:43.171Z,19.30
2023-05-13T02:54:55.754Z,20.17
2023-05-13T02:55:09.380Z,18.55
2023-05-13T02:55:23.085Z,18.08